createdAt,value
2018-09-25T00:00:45.716Z,7.54
2018-09-25T00:02:54.523Z,7.57
2018-09-25T00:05:04.861Z,7.49
2018-09-25T00:07:13.554Z,7.64
2018-09-25T00:09:22.347Z,7.62
2018-09-25T00:11:31.329Z,7.46
2018-09-25T00:13:40.021Z,7.48
2018-09-25T00:15:48.827Z,7.45
2018-09-25T00:17:58.065Z,7.41
2018-09-25T00:20:06.916Z,7.58
2018-09-25T00:22:15.677Z,7.54
2018-09-25T00:24:24.483Z,7.55
2018-09-25T00:26:34.755Z,7.34
2018-09-25T00:28:43.484Z,7.42
2018-09-25T00:30:52.249Z,7.48
2018-09-25T00:33:00.991Z,7.51
2018-09-25T00:35:09.671Z,7.38
2018-09-25T00:37:18.363Z,7.31
2018-09-25T00:39:27.203Z,7.44
2018-09-25T00:41:35.836Z,7.37
2018-09-25T00:43:44.643Z,7.22
2018-09-25T00:45:53.410Z,7.22
2018-09-25T00:48:02.274Z,7.11
2018-09-25T00:50:11.231Z,7.20
2018-09-25T00:52:19.944Z,7.10
2018-09-25T00:54:28.793Z,7.03
2018-09-25T00:56:37.472Z,7.10
2018-09-25T00:58:46.335Z,7.17
2018-09-25T01:00:54.984Z,7.09
2018-09-25T01:03:05.482Z,7.07
2018-09-25T01:05:14.215Z,6.99
2018-09-25T01:07:23.009Z,6.94
2018-09-25T01:09:31.751Z,6.95
2018-09-25T01:11:40.625Z,6.93
2018-09-25T01:13:49.489Z,6.83
2018-09-25T01:15:58.598Z,6.95
2018-09-25T01:18:07.558Z,6.85
2018-09-25T01:20:16.305Z,6.83
2018-09-25T01:22:25.280Z,6.81
2018-09-25T01:24:35.233Z,6.82
2018-09-25T01:26:44.043Z,6.77
2018-09-25T01:28:52.914Z,6.79
2018-09-25T01:31:01.739Z,6.80
2018-09-25T01:33:10.884Z,6.83
2018-09-25T01:35:19.741Z,6.89
2018-09-25T01:37:28.556Z,6.81
2018-09-25T01:39:37.344Z,6.79
2018-09-25T01:41:46.040Z,6.78
2018-09-25T01:43:54.827Z,6.77
2018-09-25T01:46:05.116Z,6.89
2018-09-25T01:48:13.896Z,6.75
2018-09-25T01:50:22.570Z,6.80
2018-09-25T01:52:31.456Z,6.89
2018-09-25T01:54:40.239Z,6.82
2018-09-25T01:56:49.129Z,6.74
2018-09-25T01:58:58.064Z,6.73
2018-09-25T02:01:06.820Z,6.71
2018-09-25T02:03:15.643Z,6.60
2018-09-25T02:05:24.488Z,6.56
2018-09-25T02:07:35.232Z,6.60
2018-09-25T02:09:44.088Z,6.63
2018-09-25T02:11:52.752Z,6.60
2018-09-25T02:14:01.549Z,6.60
2018-09-25T02:16:10.681Z,6.51
2018-09-25T02:18:19.502Z,6.47
2018-09-25T02:20:28.177Z,6.48
2018-09-25T02:22:36.914Z,6.39
2018-09-25T02:24:45.763Z,6.41
2018-09-25T02:26:54.568Z,6.36
2018-09-25T02:29:05.035Z,6.34
2018-09-25T02:31:13.999Z,6.30
2018-09-25T02:33:22.779Z,6.39
2018-09-25T02:35:31.520Z,6.30
2018-09-25T02:37:40.381Z,6.33
2018-09-25T02:39:49.229Z,6.42
2018-09-25T02:41:57.825Z,6.37
2018-09-25T02:44:07.094Z,6.36
2018-09-25T02:46:15.805Z,6.39
2018-09-25T02:48:24.660Z,6.32
2018-09-25T02:50:35.001Z,6.23
2018-09-25T02:52:43.836Z,6.23
2018-09-25T02:54:52.722Z,6.18
2018-09-25T02:57:01.485Z,6.18
2018-09-25T02:59:10.364Z,6.36
2018-09-25T03:01:19.316Z,6.30
2018-09-25T03:03:28.085Z,6.20
2018-09-25T03:05:36.979Z,6.28
2018-09-25T03:07:45.893Z,6.32
2018-09-25T03:09:54.870Z,6.25
2018-09-25T03:12:05.128Z,6.31
2018-09-25T03:14:13.957Z,6.19
2018-09-25T03:16:22.664Z,6.11
2018-09-25T03:18:31.513Z,6.06
2018-09-25T03:20:40.428Z,6.17
2018-09-25T03:22:49.160Z,6.07
2018-09-25T03:24:58.027Z,6.11
2018-09-25T03:27:06.850Z,6.12
2018-09-25T03:29:15.744Z,6.30
2018-09-25T03:31:24.618Z,6.15
2018-09-25T03:33:34.887Z,6.21
2018-09-25T03:35:43.739Z,5.91
2018-09-25T03:37:52.514Z,5.95
2018-09-25T03:40:01.340Z,6.09
2018-09-25T03:42:10.256Z,6.10
2018-09-25T03:44:19.092Z,6.14
2018-09-25T03:46:28.552Z,6.13
2018-09-25T03:48:37.447Z,6.16
2018-09-25T03:50:46.233Z,6.12
2018-09-25T03:52:55.064Z,5.95
2018-09-25T03:55:05.583Z,6.05
2018-09-25T03:57:14.347Z,6.05
2018-09-25T03:59:23.195Z,6.04
2018-09-25T04:01:32.049Z,5.92
2018-09-25T04:03:40.794Z,5.95
2018-09-25T04:05:49.836Z,6.04
2018-09-25T04:07:58.536Z,6.06
2018-09-25T04:10:07.329Z,6.05
2018-09-25T04:12:16.111Z,6.13
2018-09-25T04:14:24.799Z,6.17
2018-09-25T04:16:35.224Z,6.10
2018-09-25T04:18:44.105Z,6.11
2018-09-25T04:20:53.099Z,5.99
2018-09-25T04:23:01.944Z,6.00
2018-09-25T04:25:10.853Z,5.95
2018-09-25T04:27:19.749Z,6.00
2018-09-25T04:29:28.464Z,6.06
2018-09-25T04:31:37.370Z,6.08
2018-09-25T04:33:46.008Z,6.10
2018-09-25T04:35:54.660Z,6.11
2018-09-25T04:38:04.930Z,5.98
2018-09-25T04:40:13.754Z,6.02
2018-09-25T04:42:22.567Z,5.98
2018-09-25T04:44:31.278Z,5.88
2018-09-25T04:46:40.139Z,6.03
2018-09-25T04:48:48.962Z,6.02
2018-09-25T04:50:57.859Z,5.88
2018-09-25T04:53:06.898Z,5.81
2018-09-25T04:55:15.561Z,5.80
2018-09-25T04:57:24.228Z,5.96
2018-09-25T04:59:34.776Z,5.82
2018-09-25T05:01:43.494Z,5.84
2018-09-25T05:03:52.160Z,5.90
2018-09-25T05:06:00.925Z,5.91
2018-09-25T05:08:09.639Z,5.85
2018-09-25T05:10:18.363Z,5.72
2018-09-25T05:12:27.071Z,5.69
2018-09-25T05:14:36.006Z,5.78
2018-09-25T05:16:44.813Z,5.85
2018-09-25T05:18:53.514Z,5.77
2018-09-25T05:21:02.358Z,5.72
2018-09-25T05:23:11.292Z,5.85
2018-09-25T05:25:20.103Z,5.78
2018-09-25T05:27:29.096Z,5.82
2018-09-25T05:29:37.949Z,5.89
2018-09-25T05:31:46.701Z,5.71
2018-09-25T05:33:55.354Z,5.87
2018-09-25T05:36:05.479Z,5.85
2018-09-25T05:38:14.320Z,5.84
2018-09-25T05:40:22.991Z,5.86
2018-09-25T05:42:31.716Z,5.88
2018-09-25T05:44:40.576Z,5.95
2018-09-25T05:46:49.356Z,5.96
2018-09-25T05:48:58.338Z,6.06
2018-09-25T05:51:07.128Z,6.15
2018-09-25T05:53:15.843Z,6.11
2018-09-25T05:55:24.776Z,6.15
2018-09-25T05:57:35.369Z,6.26
2018-09-25T05:59:44.215Z,6.11
2018-09-25T06:01:53.068Z,6.13
2018-09-25T06:04:01.877Z,6.21
2018-09-25T06:06:10.643Z,6.37
2018-09-25T06:08:19.450Z,6.50
2018-09-25T06:10:28.252Z,6.35
2018-09-25T06:12:36.955Z,6.58
2018-09-25T06:14:45.705Z,6.63
2018-09-25T06:16:54.452Z,6.70
2018-09-25T06:19:03.707Z,6.82
2018-09-25T06:21:12.533Z,6.84
2018-09-25T06:23:21.320Z,6.91
2018-09-25T06:25:30.276Z,7.01
2018-09-25T06:27:39.194Z,7.01
2018-09-25T06:29:48.143Z,7.13
2018-09-25T06:31:57.248Z,7.19
2018-09-25T06:34:05.983Z,7.29
2018-09-25T06:36:14.748Z,7.31
2018-09-25T06:38:23.607Z,7.44
2018-09-25T06:40:32.386Z,7.51
2018-09-25T06:42:41.331Z,7.56
2018-09-25T06:44:50.203Z,7.74
2018-09-25T06:46:58.897Z,7.86
2018-09-25T06:49:07.628Z,7.89
2018-09-25T06:51:16.287Z,7.96
2018-09-25T06:53:25.075Z,8.15
2018-09-25T06:55:35.537Z,8.24
2018-09-25T06:57:44.236Z,8.38
2018-09-25T06:59:52.980Z,8.54
2018-09-25T07:02:02.149Z,8.63
2018-09-25T07:04:10.896Z,8.79
2018-09-25T07:06:19.733Z,8.90
2018-09-25T07:08:28.616Z,9.01
2018-09-25T07:10:37.384Z,9.05
2018-09-25T07:12:46.185Z,9.28
2018-09-25T07:14:54.993Z,9.42
2018-09-25T07:17:05.202Z,9.53
2018-09-25T07:19:14.267Z,9.63
2018-09-25T07:21:23.027Z,9.93
2018-09-25T07:23:31.782Z,10.07
2018-09-25T07:25:40.861Z,10.19
2018-09-25T07:27:49.694Z,10.37
2018-09-25T07:29:58.494Z,10.45
2018-09-25T07:32:07.335Z,10.53
2018-09-25T07:34:16.045Z,10.65
2018-09-25T07:36:24.954Z,10.75
2018-09-25T07:38:35.803Z,10.82
2018-09-25T07:40:44.543Z,11.12
2018-09-25T07:42:53.220Z,11.31
2018-09-25T07:45:02.045Z,11.43
2018-09-25T07:47:10.867Z,11.69
2018-09-25T07:49:19.544Z,11.96
2018-09-25T07:51:28.335Z,12.06
2018-09-25T07:53:37.116Z,11.98
2018-09-25T07:55:45.920Z,12.20
2018-09-25T07:57:54.729Z,11.91
2018-09-25T08:00:04.808Z,12.20
2018-09-25T08:02:13.568Z,12.36
2018-09-25T08:04:22.433Z,12.58
2018-09-25T08:06:31.290Z,12.78
2018-09-25T08:08:40.045Z,12.81
2018-09-25T08:10:48.804Z,12.90
2018-09-25T08:12:57.604Z,12.89
2018-09-25T08:15:06.485Z,13.02
2018-09-25T08:17:15.342Z,12.83
2018-09-25T08:19:24.412Z,12.53
2018-09-25T08:21:35.203Z,12.72
2018-09-25T08:23:43.953Z,12.78
2018-09-25T08:25:52.801Z,12.81
2018-09-25T08:28:01.538Z,13.24
2018-09-25T08:30:10.891Z,13.46
2018-09-25T08:32:19.533Z,13.42
2018-09-25T08:34:28.657Z,13.40
2018-09-25T08:36:37.391Z,13.69
2018-09-25T08:38:46.211Z,13.67
2018-09-25T08:40:55.244Z,13.83
2018-09-25T08:43:05.361Z,13.91
2018-09-25T08:45:14.134Z,13.62
2018-09-25T08:47:22.956Z,13.70
2018-09-25T08:49:31.692Z,13.72
2018-09-25T08:51:40.535Z,14.11
2018-09-25T08:53:49.335Z,13.93
2018-09-25T08:55:58.221Z,14.20
2018-09-25T08:58:07.067Z,14.19
2018-09-25T09:00:16.104Z,14.35
2018-09-25T09:02:24.811Z,14.08
2018-09-25T09:04:35.165Z,14.38
2018-09-25T09:06:43.948Z,14.71
2018-09-25T09:08:52.751Z,14.56
2018-09-25T09:11:01.394Z,14.62
2018-09-25T09:13:10.228Z,14.34
2018-09-25T09:15:19.005Z,14.05
2018-09-25T09:17:28.269Z,13.65
2018-09-25T09:19:36.982Z,13.95
2018-09-25T09:21:45.788Z,14.32
2018-09-25T09:23:54.716Z,14.29
2018-09-25T09:26:04.919Z,14.21
2018-09-25T09:28:13.860Z,14.27
2018-09-25T09:30:22.683Z,14.58
2018-09-25T09:32:31.577Z,14.82
2018-09-25T09:34:40.251Z,15.01
2018-09-25T09:36:49.076Z,15.17
2018-09-25T09:38:57.847Z,15.15
2018-09-25T09:41:06.757Z,14.87
2018-09-25T09:43:15.493Z,15.35
2018-09-25T09:45:24.199Z,15.25
2018-09-25T09:47:34.277Z,15.04
2018-09-25T09:49:42.956Z,15.28
2018-09-25T09:51:51.716Z,15.50
2018-09-25T09:54:00.624Z,15.89
2018-09-25T09:56:09.336Z,16.29
2018-09-25T09:58:18.176Z,16.14
2018-09-25T10:00:27.120Z,15.80
2018-09-25T10:02:35.883Z,15.61
2018-09-25T10:04:44.635Z,16.21
2018-09-25T10:06:53.484Z,16.47
2018-09-25T10:09:02.096Z,16.58
2018-09-25T10:11:11.118Z,16.61
2018-09-25T10:13:19.818Z,15.92
2018-09-25T10:15:28.596Z,15.36
2018-09-25T10:17:37.325Z,15.61
2018-09-25T10:19:46.076Z,16.26
2018-09-25T10:21:54.760Z,16.45
2018-09-25T10:24:05.220Z,16.42
2018-09-25T10:26:13.982Z,15.89
2018-09-25T10:28:23.184Z,16.07
2018-09-25T10:30:31.927Z,16.15
2018-09-25T10:32:40.756Z,16.20
2018-09-25T10:34:49.652Z,16.54
2018-09-25T10:36:58.397Z,16.78
2018-09-25T10:39:07.193Z,16.50
2018-09-25T10:41:16.328Z,16.32
2018-09-25T10:43:24.903Z,16.40
2018-09-25T10:45:34.330Z,16.41
2018-09-25T10:47:43.232Z,16.63
2018-09-25T10:49:52.039Z,16.98
2018-09-25T10:52:00.757Z,16.60
2018-09-25T10:54:09.524Z,16.71
2018-09-25T10:56:18.375Z,16.15
2018-09-25T10:58:26.888Z,15.96
2018-09-25T11:00:35.564Z,16.62
2018-09-25T11:02:44.242Z,16.69
2018-09-25T11:04:52.862Z,17.22
2018-09-25T11:07:01.992Z,17.05
2018-09-25T11:09:13.793Z,16.73
2018-09-25T11:11:22.595Z,17.29
2018-09-25T11:13:31.470Z,16.95
2018-09-25T11:15:40.273Z,17.31
2018-09-25T11:17:48.941Z,17.87
2018-09-25T11:19:58.592Z,17.37
2018-09-25T11:22:07.421Z,16.99
2018-09-25T11:24:16.097Z,17.03
2018-09-25T11:26:24.767Z,17.40
2018-09-25T11:28:35.296Z,16.61
2018-09-25T11:30:43.936Z,17.25
2018-09-25T11:32:52.524Z,17.10
2018-09-25T11:35:01.181Z,17.29
2018-09-25T11:37:10.016Z,17.10
2018-09-25T11:39:18.744Z,16.68
2018-09-25T11:41:27.702Z,16.84
2018-09-25T11:43:36.436Z,16.68
2018-09-25T11:45:45.113Z,16.53
2018-09-25T11:47:53.952Z,16.77
2018-09-25T11:50:04.588Z,17.05
2018-09-25T11:52:13.508Z,17.53
2018-09-25T11:54:22.276Z,18.19
2018-09-25T11:56:30.943Z,17.57
2018-09-25T11:58:40.179Z,17.62
2018-09-25T12:00:48.788Z,18.38
2018-09-25T12:02:57.436Z,18.65
2018-09-25T12:05:15.166Z,18.69
2018-09-25T12:07:24.016Z,19.00
2018-09-25T12:09:34.437Z,18.46
2018-09-25T12:11:43.279Z,18.22
2018-09-25T12:13:52.201Z,18.42
2018-09-25T12:16:01.064Z,18.95
2018-09-25T12:18:09.753Z,19.02
2018-09-25T12:20:18.527Z,19.12
2018-09-25T12:22:27.384Z,18.86
2018-09-25T12:24:36.493Z,18.79
2018-09-25T12:26:45.355Z,18.32
2018-09-25T12:28:54.028Z,18.61
2018-09-25T12:31:04.179Z,18.29
2018-09-25T12:33:13.101Z,18.96
2018-09-25T12:35:21.954Z,17.69
2018-09-25T12:37:30.853Z,18.33
2018-09-25T12:39:39.565Z,18.15
2018-09-25T12:41:48.233Z,17.83
2018-09-25T12:43:57.032Z,17.06
2018-09-25T12:46:05.804Z,16.96
2018-09-25T12:48:14.688Z,17.30
2018-09-25T12:50:23.427Z,17.89
2018-09-25T12:52:32.202Z,17.87
2018-09-25T12:54:41.157Z,18.32
2018-09-25T12:56:49.866Z,18.49
2018-09-25T12:58:58.456Z,18.42
2018-09-25T13:01:07.344Z,18.61
2018-09-25T13:03:15.938Z,18.81
2018-09-25T13:05:24.745Z,19.22
2018-09-25T13:07:34.862Z,19.08
2018-09-25T13:09:43.593Z,19.36
2018-09-25T13:11:52.290Z,19.31
2018-09-25T13:14:00.957Z,19.45
2018-09-25T13:16:10.012Z,18.72
2018-09-25T13:18:18.699Z,19.38
2018-09-25T13:20:27.620Z,19.40
2018-09-25T13:22:36.476Z,20.00
2018-09-25T13:24:45.298Z,19.38
2018-09-25T13:26:53.979Z,19.92
2018-09-25T13:29:04.232Z,19.25
2018-09-25T13:31:13.178Z,18.74
2018-09-25T13:33:22.503Z,19.07
2018-09-25T13:35:31.775Z,19.74
2018-09-25T13:37:40.837Z,20.23
2018-09-25T13:39:49.605Z,20.43
2018-09-25T13:41:58.361Z,20.10
2018-09-25T13:44:07.080Z,20.64
2018-09-25T13:46:15.757Z,20.44
2018-09-25T13:48:24.710Z,20.58
2018-09-25T13:50:34.919Z,20.12
2018-09-25T13:52:43.684Z,19.89
2018-09-25T13:54:52.574Z,19.61
2018-09-25T13:57:01.252Z,19.73
2018-09-25T13:59:10.058Z,19.11
2018-09-25T14:01:18.974Z,19.20
2018-09-25T14:03:28.638Z,19.35
2018-09-25T14:05:37.375Z,19.16
2018-09-25T14:07:46.198Z,18.01
2018-09-25T14:09:55.001Z,18.42
2018-09-25T14:12:05.400Z,18.36
2018-09-25T14:14:14.924Z,18.81
2018-09-25T14:16:23.764Z,18.63
2018-09-25T14:18:33.958Z,18.55
2018-09-25T14:20:42.634Z,18.91
2018-09-25T14:22:51.399Z,18.57
2018-09-25T14:25:00.172Z,18.28
2018-09-25T14:27:08.787Z,18.92
2018-09-25T14:29:17.528Z,18.86
2018-09-25T14:31:28.727Z,18.89
2018-09-25T14:33:37.523Z,19.05
2018-09-25T14:35:46.433Z,19.48
2018-09-25T14:37:55.256Z,20.04
2018-09-25T14:40:05.216Z,19.94
2018-09-25T14:42:13.931Z,20.32
2018-09-25T14:44:22.699Z,20.65
2018-09-25T14:46:31.402Z,20.87
2018-09-25T14:48:40.188Z,20.56
2018-09-25T14:50:48.876Z,21.09
2018-09-25T14:52:57.663Z,21.17
2018-09-25T14:55:06.473Z,21.69
2018-09-25T14:57:15.268Z,21.76
2018-09-25T14:59:23.996Z,21.71
2018-09-25T15:01:34.374Z,22.44
2018-09-25T15:03:43.436Z,22.63
2018-09-25T15:05:52.253Z,23.31
2018-09-25T15:08:01.093Z,23.27
2018-09-25T15:10:09.839Z,22.65
2018-09-25T15:12:18.520Z,21.69
2018-09-25T15:14:27.327Z,22.20
2018-09-25T15:16:36.197Z,22.72
2018-09-25T15:18:45.017Z,23.72
2018-09-25T15:20:53.861Z,23.73
2018-09-25T15:23:04.267Z,23.95
2018-09-25T15:25:13.255Z,24.28
2018-09-25T15:27:22.134Z,24.04
2018-09-25T15:29:30.786Z,23.69
2018-09-25T15:31:39.406Z,24.65
2018-09-25T15:33:48.060Z,24.54
2018-09-25T15:35:57.897Z,24.46
2018-09-25T15:38:06.687Z,24.81
2018-09-25T15:40:15.539Z,24.29
2018-09-25T15:42:24.328Z,23.42
2018-09-25T15:44:34.959Z,24.81
2018-09-25T15:46:43.797Z,24.30
2018-09-25T15:48:52.693Z,23.40
2018-09-25T15:51:01.440Z,22.83
2018-09-25T15:53:10.380Z,22.92
2018-09-25T15:55:19.247Z,23.68
2018-09-25T15:57:27.948Z,21.93
2018-09-25T15:59:36.638Z,21.64
2018-09-25T16:01:45.450Z,21.63
2018-09-25T16:03:54.267Z,21.83
2018-09-25T16:06:04.137Z,21.37
2018-09-25T16:08:13.200Z,20.65
2018-09-25T16:10:22.020Z,19.39
2018-09-25T16:12:30.800Z,18.68
2018-09-25T16:14:39.572Z,18.08
2018-09-25T16:16:48.318Z,18.13
2018-09-25T16:18:57.724Z,17.93
2018-09-25T16:21:06.806Z,17.85
2018-09-25T16:23:15.664Z,17.54
2018-09-25T16:25:24.417Z,17.59
2018-09-25T16:27:34.412Z,17.30
2018-09-25T16:29:43.240Z,17.24
2018-09-25T16:31:51.988Z,17.38
2018-09-25T16:34:00.788Z,17.02
2018-09-25T16:36:09.617Z,16.94
2018-09-25T16:38:18.491Z,16.98
2018-09-25T16:40:27.277Z,16.95
2018-09-25T16:42:36.022Z,16.62
2018-09-25T16:44:44.883Z,16.51
2018-09-25T16:46:53.631Z,16.27
2018-09-25T16:49:02.459Z,16.23
2018-09-25T16:51:11.173Z,16.12
2018-09-25T16:53:19.869Z,15.91
2018-09-25T16:55:28.626Z,15.93
2018-09-25T16:57:37.607Z,16.18
2018-09-25T16:59:46.488Z,15.98
2018-09-25T17:01:55.411Z,15.70
2018-09-25T17:04:05.744Z,15.63
2018-09-25T17:06:14.481Z,15.38
2018-09-25T17:08:23.260Z,15.01
2018-09-25T17:10:32.116Z,14.69
2018-09-25T17:12:40.923Z,14.72
2018-09-25T17:14:49.651Z,14.60
2018-09-25T17:16:58.316Z,14.41
2018-09-25T17:19:07.051Z,14.33
2018-09-25T17:21:15.838Z,14.57
2018-09-25T17:23:24.608Z,14.15
2018-09-25T17:25:34.857Z,13.98
2018-09-25T17:27:43.591Z,13.87
2018-09-25T17:29:52.402Z,13.66
2018-09-25T17:32:01.107Z,13.59
2018-09-25T17:34:09.921Z,13.41
2018-09-25T17:36:18.632Z,13.33
2018-09-25T17:38:27.349Z,13.16
2018-09-25T17:40:36.443Z,13.05
2018-09-25T17:42:45.247Z,13.03
2018-09-25T17:44:54.194Z,12.95
2018-09-25T17:47:04.928Z,12.78
2018-09-25T17:49:13.809Z,12.73
2018-09-25T17:51:22.509Z,12.63
2018-09-25T17:53:31.364Z,12.54
2018-09-25T17:55:40.137Z,12.41
2018-09-25T17:57:48.820Z,12.29
2018-09-25T17:59:58.645Z,12.22
2018-09-25T18:02:07.412Z,12.29
2018-09-25T18:04:15.964Z,12.20
2018-09-25T18:06:24.806Z,12.00
2018-09-25T18:08:35.326Z,11.86
2018-09-25T18:10:44.128Z,11.72
2018-09-25T18:12:53.089Z,11.76
2018-09-25T18:15:01.863Z,11.67
2018-09-25T18:17:10.583Z,11.59
2018-09-25T18:19:19.534Z,11.53
2018-09-25T18:21:28.507Z,11.48
2018-09-25T18:23:37.268Z,11.39
2018-09-25T18:25:46.005Z,11.32
2018-09-25T18:27:55.000Z,11.19
2018-09-25T18:30:05.212Z,11.11
2018-09-25T18:32:13.906Z,10.92
2018-09-25T18:34:22.705Z,10.82
2018-09-25T18:36:31.584Z,10.82
2018-09-25T18:38:40.468Z,10.84
2018-09-25T18:40:49.286Z,10.69
2018-09-25T18:42:58.081Z,10.71
2018-09-25T18:45:07.072Z,10.54
2018-09-25T18:47:15.765Z,10.38
2018-09-25T18:49:24.678Z,10.39
2018-09-25T18:51:35.218Z,10.48
2018-09-25T18:53:44.097Z,10.32
2018-09-25T18:55:52.859Z,10.25
2018-09-25T18:58:02.235Z,10.15
2018-09-25T19:00:11.409Z,10.05
2018-09-25T19:02:21.016Z,10.08
2018-09-25T19:04:29.832Z,10.24
2018-09-25T19:06:38.502Z,10.17
2018-09-25T19:08:47.777Z,10.06
2018-09-25T19:10:57.678Z,9.87
2018-09-25T19:13:06.398Z,9.87
2018-09-25T19:15:15.829Z,9.83
2018-09-25T19:17:24.652Z,10.13
2018-09-25T19:19:35.108Z,10.02
2018-09-25T19:21:44.172Z,9.70
2018-09-25T19:23:52.892Z,9.65
2018-09-25T19:26:01.926Z,9.63
2018-09-25T19:28:10.763Z,9.75
2018-09-25T19:30:19.495Z,9.53
2018-09-25T19:32:28.184Z,9.45
2018-09-25T19:34:36.843Z,9.44
2018-09-25T19:36:45.796Z,9.41
2018-09-25T19:38:54.625Z,9.24
2018-09-25T19:41:04.681Z,9.24
2018-09-25T19:43:13.392Z,9.26
2018-09-25T19:45:22.196Z,9.17
2018-09-25T19:47:31.012Z,9.08
2018-09-25T19:49:39.943Z,8.91
2018-09-25T19:51:48.714Z,8.82
2018-09-25T19:53:57.484Z,8.80
2018-09-25T19:56:06.486Z,8.73
2018-09-25T19:58:15.224Z,8.59
2018-09-25T20:00:23.945Z,8.44
2018-09-25T20:02:34.748Z,8.38
2018-09-25T20:04:43.513Z,8.40
2018-09-25T20:06:52.434Z,8.37
2018-09-25T20:09:01.153Z,8.34
2018-09-25T20:11:10.189Z,8.13
2018-09-25T20:13:19.001Z,8.24
2018-09-25T20:15:27.872Z,8.25
2018-09-25T20:17:36.506Z,8.21
2018-09-25T20:19:45.393Z,8.15
2018-09-25T20:21:54.124Z,8.10
2018-09-25T20:24:04.770Z,8.06
2018-09-25T20:26:13.661Z,8.06
2018-09-25T20:28:22.514Z,7.97
2018-09-25T20:30:31.347Z,8.00
2018-09-25T20:32:40.225Z,7.94
2018-09-25T20:34:49.064Z,7.95
2018-09-25T20:36:57.866Z,7.90
2018-09-25T20:39:06.782Z,7.78
2018-09-25T20:41:15.723Z,7.71
2018-09-25T20:43:24.450Z,7.62
2018-09-25T20:45:34.981Z,7.62
2018-09-25T20:47:44.083Z,7.41
2018-09-25T20:49:52.800Z,7.46
2018-09-25T20:52:01.702Z,7.44
2018-09-25T20:54:10.615Z,7.50
2018-09-25T20:56:19.427Z,7.59
2018-09-25T20:58:28.239Z,7.72
2018-09-25T21:00:37.109Z,7.54
2018-09-25T21:02:45.995Z,7.45
2018-09-25T21:04:55.096Z,7.35
2018-09-25T21:07:05.558Z,7.43
2018-09-25T21:09:14.719Z,7.27
2018-09-25T21:11:23.460Z,7.18
2018-09-25T21:13:32.205Z,7.17
2018-09-25T21:15:41.090Z,6.98
2018-09-25T21:17:49.891Z,6.95
2018-09-25T21:19:58.672Z,6.84
2018-09-25T21:22:07.437Z,6.83
2018-09-25T21:24:16.223Z,6.80
2018-09-25T21:26:24.955Z,6.78
2018-09-25T21:28:35.520Z,6.73
2018-09-25T21:30:44.128Z,6.70
2018-09-25T21:32:53.323Z,6.67
2018-09-25T21:35:02.085Z,6.71
2018-09-25T21:37:10.744Z,6.73
2018-09-25T21:39:19.739Z,6.76
2018-09-25T21:41:28.388Z,6.66
2018-09-25T21:43:37.201Z,6.64
2018-09-25T21:45:46.083Z,6.60
2018-09-25T21:47:54.934Z,6.58
2018-09-25T21:50:05.166Z,6.54
2018-09-25T21:52:14.132Z,6.43
2018-09-25T21:54:22.999Z,6.49
2018-09-25T21:56:31.804Z,6.48
2018-09-25T21:58:40.759Z,6.49
2018-09-25T22:00:49.678Z,6.44
2018-09-25T22:02:58.437Z,6.35
2018-09-25T22:05:07.300Z,6.26
2018-09-25T22:07:15.920Z,6.17
2018-09-25T22:09:24.756Z,5.98
2018-09-25T22:11:34.557Z,5.96
2018-09-25T22:13:43.269Z,5.96
2018-09-25T22:15:52.176Z,5.82
2018-09-25T22:18:00.895Z,5.84
2018-09-25T22:20:09.669Z,5.80
2018-09-25T22:22:18.514Z,5.79
2018-09-25T22:24:27.217Z,5.68
2018-09-25T22:26:35.980Z,5.66
2018-09-25T22:28:44.830Z,5.70
2018-09-25T22:30:53.616Z,5.54
2018-09-25T22:33:02.431Z,5.56
2018-09-25T22:35:11.235Z,5.55
2018-09-25T22:37:19.986Z,5.56
2018-09-25T22:39:28.748Z,5.48
2018-09-25T22:41:37.399Z,5.47
2018-09-25T22:43:46.192Z,5.57
2018-09-25T22:45:55.350Z,5.79
2018-09-25T22:48:05.632Z,5.89
2018-09-25T22:50:14.509Z,5.71
2018-09-25T22:52:23.419Z,5.50
2018-09-25T22:54:32.341Z,5.47
2018-09-25T22:56:41.080Z,5.47
2018-09-25T22:58:50.205Z,5.42
2018-09-25T23:00:58.991Z,5.45
2018-09-25T23:03:07.742Z,5.34
2018-09-25T23:05:16.480Z,5.21
2018-09-25T23:07:25.221Z,5.16
2018-09-25T23:09:35.526Z,5.11
2018-09-25T23:11:44.368Z,5.11
2018-09-25T23:13:53.149Z,5.07
2018-09-25T23:16:01.848Z,5.11
2018-09-25T23:18:10.750Z,5.10
2018-09-25T23:20:19.508Z,5.14
2018-09-25T23:22:28.253Z,5.09
2018-09-25T23:24:37.043Z,5.20
2018-09-25T23:26:45.684Z,5.33
2018-09-25T23:28:54.516Z,5.30
2018-09-25T23:31:04.787Z,5.17
2018-09-25T23:33:13.678Z,5.05
2018-09-25T23:35:22.503Z,5.01
2018-09-25T23:37:31.280Z,5.09
2018-09-25T23:39:40.060Z,5.12
2018-09-25T23:41:48.774Z,5.03
2018-09-25T23:43:57.684Z,5.17
2018-09-25T23:46:38.475Z,5.13
2018-09-25T23:48:52.000Z,4.99
2018-09-25T23:51:03.571Z,4.94
2018-09-25T23:53:15.071Z,4.92
2018-09-25T23:55:22.744Z,4.93
2018-09-25T23:57:30.297Z,4.87
2018-09-25T23:59:42.371Z,4.84
